Stations météo

réclame
Mon MeteoGroup
Toulon/Ile du Levant, France (7678): Température de l'air & dewpoint: 14.11.2017 01:00:00 - 20.11.2017 01:00:00 (CET)Toulon/Ile du Levant, France (7678): Vitesse du vent & gusts: 14.11.2017 01:00:00 - 20.11.2017 01:00:00 (CET)Toulon/Ile du Levant, France (7678): Direction du vent: 14.11.2017 01:00:00 - 20.11.2017 01:00:00 (CET)Toulon/Ile du Levant, France (7678): reduced air pressure: 14.11.2017 01:00:00 - 20.11.2017 01:00:00 (CET)Toulon/Ile du Levant, France (7678): Quantités de précipitations: 14.11.2017 01:00:00 - 20.11.2017 01:00:00 (CET)
Date & Time tt [°C] td [°C] ff [km/h] ff [knt] fx [km/h] fx [knt] dd ppp [hPa] rr [mm]
20.11.2017 01:00:00 - - - - - - - - -
20.11.2017 00:00:00 11,8 5,0 9 5 18 10 N 1017,1 0,0
19.11.2017 23:00:00 12,3 4,3 15 8 28 15 N 1016,6 0,0
19.11.2017 22:00:00 12,9 5,1 15 8 26 14 N 1016,2 -
19.11.2017 21:00:00 12,9 8,8 15 8 26 14 NE 1015,2 0,0
19.11.2017 20:00:00 13,9 8,5 18 10 29 16 NE 1014,1 0,0
19.11.2017 19:00:00 15,9 4,6 18 10 29 16 NNW 1013,2 -
19.11.2017 18:00:00 15,3 9,6 16 9 34 18 W 1012,4 0,0
19.11.2017 17:00:00 15,8 8,0 24 13 37 20 W 1012,0 0,0
19.11.2017 16:00:00 16,5 7,7 21 11 31 17 W 1011,9 -
19.11.2017 15:00:00 16,5 5,1 21 11 31 17 W 1012,1 0,0
19.11.2017 14:00:00 16,8 -0,4 8 4 15 8 W 1012,8 0,0
19.11.2017 13:00:00 16,1 0,6 11 6 34 18 E 1013,1 -
19.11.2017 12:00:00 15,4 1,1 18 10 37 20 WNW 1013,4 0,0
19.11.2017 11:00:00 14,4 0,6 29 16 55 30 WNW 1013,5 0,0
19.11.2017 10:00:00 13,5 -0,6 42 23 74 40 WNW 1014,0 -
19.11.2017 09:00:00 12,5 -0,1 39 21 59 32 WNW 1013,7 0,0
19.11.2017 08:00:00 12,2 0,0 28 15 48 26 WNW 1013,9 0,0
19.11.2017 07:00:00 11,2 3,9 18 10 28 15 W 1013,6 -
19.11.2017 06:00:00 10,7 4,6 18 10 28 15 W 1014,2 0,0
19.11.2017 05:00:00 10,8 6,3 15 8 21 11 W 1014,5 0,0
19.11.2017 04:00:00 12,0 6,9 8 4 11 6 SSW 1014,9 -
19.11.2017 03:00:00 12,2 8,3 9 5 13 7 W 1015,5 0,0
19.11.2017 02:00:00 12,2 8,3 9 5 15 8 W 1016,0 0,0
19.11.2017 01:00:00 12,6 7,7 9 5 11 6 W 1016,5 -
19.11.2017 00:00:00 12,5 8,6 8 4 9 5 W 1017,2 0,0
18.11.2017 23:00:00 12,8 9,2 8 4 15 8 W 1017,3 0,0
18.11.2017 22:00:00 12,6 8,1 11 6 21 11 W 1017,3 -
18.11.2017 21:00:00 13,0 8,3 16 9 22 12 WSW 1017,7 0,0
18.11.2017 20:00:00 12,7 9,0 13 7 21 11 WSW 1017,4 0,0
18.11.2017 19:00:00 13,2 9,8 15 8 21 11 W 1017,3 -
18.11.2017 18:00:00 13,1 9,3 13 7 21 11 WSW 1017,2 0,0
18.11.2017 17:00:00 14,2 9,8 13 7 26 14 WSW 1016,9 0,0
18.11.2017 16:00:00 15,6 9,5 16 9 24 13 WSW 1016,6 -
18.11.2017 15:00:00 16,2 9,6 13 7 24 13 SW 1016,8 0,0
18.11.2017 14:00:00 16,0 10,7 9 5 18 10 S 1016,7 0,0
18.11.2017 13:00:00 16,7 10,1 8 4 16 9 SSE 1017,3 -
18.11.2017 12:00:00 16,0 11,2 11 6 16 9 SE 1017,2 0,0
18.11.2017 11:00:00 16,3 11,2 8 4 16 9 ESE 1017,7 0,0
18.11.2017 10:00:00 15,2 11,2 11 6 16 9 E 1017,5 -
18.11.2017 09:00:00 14,3 11,4 8 4 13 7 E 1016,9 0,0
18.11.2017 08:00:00 12,2 10,1 9 5 16 9 ENE 1016,9 0,0
18.11.2017 07:00:00 11,9 9,6 11 6 16 9 NE 1016,5 -
18.11.2017 06:00:00 11,7 9,1 13 7 16 9 ENE 1016,2 0,0
18.11.2017 05:00:00 11,8 9,2 13 7 16 9 E 1016,2 0,0
18.11.2017 04:00:00 11,8 9,2 13 7 16 9 ENE 1016,3 -
18.11.2017 03:00:00 11,9 9,5 11 6 15 8 ENE 1016,3 0,0
18.11.2017 02:00:00 12,9 7,8 5 3 9 5 E 1016,3 0,0
18.11.2017 01:00:00 13,6 6,9 5 3 5 3 ENE 1016,2 -
18.11.2017 00:00:00 13,3 7,9 5 3 13 7 NW 1016,5 0,0
17.11.2017 23:00:00 13,3 8,8 11 6 18 10 W 1016,4 0,0
17.11.2017 22:00:00 12,9 9,0 16 9 22 12 WNW 1016,5 -
17.11.2017 21:00:00 13,4 9,8 16 9 26 14 W 1016,0 0,0
17.11.2017 20:00:00 13,6 9,8 21 11 26 14 W 1015,9 0,0
17.11.2017 19:00:00 13,5 10,5 15 8 26 14 W 1015,9 -
17.11.2017 18:00:00 13,7 9,7 16 9 22 12 WSW 1015,8 0,0
17.11.2017 17:00:00 14,8 9,4 11 6 16 9 SW 1015,8 0,0
17.11.2017 16:00:00 16,5 9,9 8 4 13 7 WSW 1015,8 -
17.11.2017 15:00:00 16,0 9,9 8 4 16 9 W 1016,1 0,0
17.11.2017 14:00:00 17,0 9,9 5 3 13 7 SSE 1016,5 0,0
17.11.2017 13:00:00 17,2 10,1 9 5 21 11 E 1016,7 -
17.11.2017 12:00:00 17,2 9,9 13 7 22 12 ESE 1016,8 0,0
17.11.2017 11:00:00 16,6 8,8 15 8 21 11 E 1017,3 0,0
17.11.2017 10:00:00 15,7 8,7 15 8 22 12 E 1017,1 -
17.11.2017 09:00:00 14,5 8,9 8 4 24 13 NE 1017,1 0,0
17.11.2017 08:00:00 12,6 9,1 21 11 24 13 E 1016,3 0,0
17.11.2017 07:00:00 12,2 7,7 16 9 22 12 E 1016,2 -
17.11.2017 06:00:00 12,3 7,2 15 8 21 11 ENE 1016,3 0,0
17.11.2017 05:00:00 12,5 6,3 15 8 18 10 ENE 1016,5 0,0
17.11.2017 04:00:00 12,3 5,2 13 7 16 9 E 1016,4 -
17.11.2017 03:00:00 12,4 4,1 13 7 18 10 E 1016,4 0,0
17.11.2017 02:00:00 11,9 6,0 4 2 9 5 E 1016,7 0,0
17.11.2017 01:00:00 12,7 5,8 5 3 15 8 W 1016,9 -
17.11.2017 00:00:00 12,4 7,5 13 7 21 11 W 1017,1 0,0
16.11.2017 23:00:00 12,5 7,2 15 8 21 11 W 1017,3 0,0
16.11.2017 22:00:00 12,7 7,4 18 10 24 13 W 1017,3 -
16.11.2017 21:00:00 13,2 6,8 21 11 31 17 W 1017,4 0,0
16.11.2017 20:00:00 13,4 7,4 24 13 34 18 W 1017,4 0,0
16.11.2017 19:00:00 13,9 5,0 24 13 39 21 W 1017,5 -
16.11.2017 18:00:00 14,3 5,9 29 16 48 26 W 1017,3 0,0
16.11.2017 17:00:00 14,8 6,1 34 18 46 25 W 1017,0 0,0
16.11.2017 16:00:00 15,7 6,9 29 16 44 24 W 1017,0 -
16.11.2017 15:00:00 16,0 7,7 29 16 39 21 W 1017,5 0,0
16.11.2017 14:00:00 16,6 6,4 26 14 39 21 W 1017,9 0,0
16.11.2017 13:00:00 16,5 7,2 26 14 35 19 W 1018,5 -
16.11.2017 12:00:00 16,4 4,7 21 11 29 16 W 1018,9 0,0
16.11.2017 11:00:00 15,6 5,8 15 8 18 10 W 1019,8 0,0
16.11.2017 10:00:00 14,9 4,6 9 5 13 7 WNW 1019,7 -
16.11.2017 09:00:00 14,1 4,7 4 2 11 6 N 1019,5 0,0
16.11.2017 08:00:00 13,0 6,3 5 3 8 4 WNW 1019,1 0,0
16.11.2017 07:00:00 12,8 5,2 5 3 15 8 ENE 1018,7 -
16.11.2017 06:00:00 12,3 4,8 9 5 18 10 NE 1018,6 0,0
16.11.2017 05:00:00 12,7 6,1 9 5 18 10 ENE 1018,6 0,0
16.11.2017 04:00:00 12,8 5,9 13 7 34 18 ENE 1018,1 -
16.11.2017 03:00:00 13,4 6,0 22 12 35 19 E 1018,3 0,0
16.11.2017 02:00:00 12,8 5,5 8 4 11 6 ENE 1018,4 0,0
16.11.2017 01:00:00 13,8 4,6 5 3 16 9 NNE 1018,5 -
16.11.2017 00:00:00 12,8 7,5 5 3 13 7 WNW 1018,7 0,0
15.11.2017 23:00:00 13,2 8,1 8 4 9 5 W 1018,7 0,0
15.11.2017 22:00:00 13,2 6,8 8 4 13 7 W 1018,6 -
15.11.2017 21:00:00 13,6 6,9 8 4 18 10 W 1018,4 0,0
15.11.2017 20:00:00 13,2 8,5 13 7 18 10 W 1017,9 0,0
15.11.2017 19:00:00 13,3 8,8 13 7 18 10 W 1017,5 -
15.11.2017 18:00:00 13,4 8,7 13 7 22 12 W 1017,1 0,0
15.11.2017 17:00:00 15,1 6,4 8 4 9 5 W 1016,6 0,0
15.11.2017 16:00:00 16,8 4,1 5 3 15 8 SSE 1016,1 -
15.11.2017 15:00:00 17,1 7,7 9 5 16 9 W 1016,1 0,0
15.11.2017 14:00:00 17,7 2,0 8 4 15 8 SSE 1016,0 0,0
15.11.2017 13:00:00 17,0 6,5 5 3 16 9 WSW 1016,5 -
15.11.2017 12:00:00 17,1 5,4 4 2 18 10 WSW 1016,7 0,0
15.11.2017 11:00:00 18,0 3,8 4 2 9 5 SE 1016,6 0,0
15.11.2017 10:00:00 16,1 0,6 5 3 11 6 SW 1016,4 -
15.11.2017 09:00:00 12,9 4,1 8 4 13 7 W 1016,1 0,0
15.11.2017 08:00:00 11,8 3,8 8 4 11 6 W 1015,8 0,0
15.11.2017 07:00:00 11,9 2,6 8 4 18 10 W 1015,2 -
15.11.2017 06:00:00 11,6 3,1 16 9 21 11 W 1014,8 0,0
15.11.2017 05:00:00 12,0 4,9 9 5 13 7 W 1014,5 0,0
15.11.2017 04:00:00 12,2 4,7 8 4 11 6 W 1014,5 -
15.11.2017 03:00:00 13,4 -3,0 9 5 18 10 NW 1014,9 0,0
15.11.2017 02:00:00 11,2 3,2 15 8 22 12 W 1015,2 0,0
15.11.2017 01:00:00 11,3 3,8 11 6 16 9 W 1015,6 -
15.11.2017 00:00:00 11,5 3,3 11 6 21 11 W 1015,6 0,0
14.11.2017 23:00:00 11,5 2,2 15 8 28 15 W 1015,5 0,0
14.11.2017 22:00:00 12,1 0,2 22 12 29 16 WNW 1016,0 -
14.11.2017 21:00:00 12,9 0,9 21 11 28 15 WNW 1015,9 0,0
14.11.2017 20:00:00 12,4 3,9 15 8 24 13 WSW 1015,8 0,0
14.11.2017 19:00:00 12,9 -0,7 18 10 29 16 WSW 1015,9 -
14.11.2017 18:00:00 12,9 -0,4 18 10 29 16 WSW 1015,4 0,0
14.11.2017 17:00:00 13,5 -2,1 16 9 24 13 WSW 1015,1 0,0
14.11.2017 16:00:00 15,1 -0,7 16 9 28 15 W 1015,0 -
14.11.2017 15:00:00 15,6 -3,4 15 8 21 11 W 1014,5 0,0
14.11.2017 14:00:00 16,3 -2,3 9 5 31 17 E 1014,7 0,0
14.11.2017 13:00:00 16,3 -2,8 21 11 34 18 E 1014,8 -
14.11.2017 12:00:00 15,4 -4,6 11 6 24 13 NE 1014,9 0,0
14.11.2017 11:00:00 14,2 -0,3 8 4 13 7 WNW 1014,7 0,0
14.11.2017 10:00:00 13,2 1,5 5 3 15 8 NW 1014,0 -
14.11.2017 09:00:00 12,1 2,3 9 5 13 7 NNW 1013,5 0,0
14.11.2017 08:00:00 11,4 2,7 4 2 9 5 WNW 1012,5 0,0
14.11.2017 07:00:00 10,7 1,2 4 2 9 5 W 1011,7 -
14.11.2017 06:00:00 11,0 1,0 8 4 11 6 W 1010,7 0,0
14.11.2017 05:00:00 11,3 -1,8 9 5 21 11 NW 1010,2 0,0
14.11.2017 04:00:00 10,7 -1,7 13 7 29 16 N 1009,9 -
14.11.2017 03:00:00 10,6 -2,1 15 8 37 20 NNW 1009,6 0,0
14.11.2017 02:00:00 10,5 -0,6 22 12 37 20 NNW 1009,1 0,0
14.11.2017 01:00:00 10,6 -0,9 22 12 39 21 NNW 1008,8 -

tt = Température de l'air
td = dewpoint
ff = Vitesse du vent
fx = gusts
dd = Direction du vent
ppp = reduced air pressure
rr = Quantités de précipitations

stations d'obs. à proximité